createdAt,value
2018-06-22T00:07:46.461Z,96108.53
2018-06-22T00:10:18.963Z,96112.67
2018-06-22T00:12:52.914Z,96109.91
2018-06-22T00:15:23.835Z,96122.60
2018-06-22T00:17:56.100Z,96131.73
2018-06-22T00:23:06.488Z,96142.98
2018-06-22T00:25:36.645Z,96144.16
2018-06-22T00:28:05.749Z,96152.42
2018-06-22T00:33:16.403Z,96160.58
2018-06-22T00:37:59.570Z,96154.42
2018-06-22T00:41:04.091Z,96164.00
2018-06-22T00:47:31.437Z,96155.25
2018-06-22T00:50:13.269Z,96155.25
2018-06-22T00:52:51.428Z,96154.77
2018-06-22T00:55:26.565Z,96159.48
2018-06-22T00:58:00.531Z,96161.58
2018-06-22T01:00:36.155Z,96162.73
2018-06-22T01:03:15.979Z,96172.44
2018-06-22T01:05:47.350Z,96176.63
2018-06-22T01:08:21.337Z,96183.11
2018-06-22T01:10:52.140Z,96178.11
2018-06-22T01:13:24.468Z,96188.79
2018-06-22T01:15:57.721Z,96189.89
2018-06-22T01:18:32.429Z,96190.67
2018-06-22T01:21:08.215Z,96194.19
2018-06-22T01:23:41.155Z,96195.15
2018-06-22T01:26:12.405Z,96199.33
2018-06-22T01:28:47.613Z,96193.05
2018-06-22T01:31:17.477Z,96198.22
2018-06-22T01:34:11.216Z,96181.70
2018-06-22T01:36:40.929Z,96187.00
2018-06-22T01:39:15.321Z,96185.55
2018-06-22T01:41:46.743Z,96197.36
2018-06-22T01:44:31.814Z,96186.50
2018-06-22T01:47:04.459Z,96184.89
2018-06-22T01:49:34.323Z,96178.41
2018-06-22T01:52:03.313Z,96169.17
2018-06-22T01:54:34.162Z,96169.12
2018-06-22T01:57:04.096Z,96166.53
2018-06-22T01:59:39.673Z,96177.86
2018-06-22T02:02:20.632Z,96191.34
2018-06-22T02:05:01.453Z,96184.07
2018-06-22T02:07:33.636Z,96180.81
2018-06-22T02:13:00.437Z,96188.45
2018-06-22T02:15:35.639Z,96194.61
2018-06-22T02:18:04.805Z,96196.91
2018-06-22T02:20:34.163Z,96193.00
2018-06-22T02:23:04.296Z,96199.95
2018-06-22T02:25:33.485Z,96207.19
2018-06-22T02:28:04.370Z,96208.30
2018-06-22T02:30:44.317Z,96205.49
2018-06-22T02:33:17.105Z,96222.28
2018-06-22T02:35:49.911Z,96213.45
2018-06-22T02:38:18.758Z,96218.12
2018-06-22T02:40:49.898Z,96229.38
2018-06-22T02:43:18.754Z,96229.78
2018-06-22T02:45:48.723Z,96223.94
2018-06-22T02:48:22.820Z,96229.81
2018-06-22T02:50:53.920Z,96235.14
2018-06-22T02:53:25.013Z,96231.73
2018-06-22T02:55:54.306Z,96239.84
2018-06-22T02:58:24.326Z,96245.38
2018-06-22T03:00:53.939Z,96258.05
2018-06-22T03:03:31.873Z,96261.34
2018-06-22T03:06:04.311Z,96262.25
2018-06-22T03:08:36.602Z,96253.76
2018-06-22T03:11:05.982Z,96269.06
2018-06-22T03:13:38.018Z,96260.63
2018-06-22T03:16:13.897Z,96264.55
2018-06-22T03:18:45.500Z,96275.38
2018-06-22T03:21:23.841Z,96283.95
2018-06-22T03:24:00.020Z,96282.03
2018-06-22T03:26:29.192Z,96296.55
2018-06-22T03:28:58.650Z,96300.41
2018-06-22T03:31:31.997Z,96294.84
2018-06-22T03:34:07.944Z,96297.12
2018-06-22T03:36:37.313Z,96305.24
2018-06-22T03:39:13.128Z,96302.48
2018-06-22T03:45:17.379Z,96307.45
2018-06-22T03:48:04.079Z,96311.77
2018-06-22T03:50:41.509Z,96299.76
2018-06-22T03:53:22.844Z,96307.27
2018-06-22T03:56:03.348Z,96303.19
2018-06-22T03:58:34.967Z,96306.92
2018-06-22T04:01:09.233Z,96306.91
2018-06-22T04:03:43.751Z,96306.44
2018-06-22T04:06:22.362Z,96309.02
2018-06-22T04:08:58.819Z,96314.98
2018-06-22T04:11:35.888Z,96313.52
2018-06-22T04:14:18.467Z,96322.83
2018-06-22T04:17:07.651Z,96325.66
2018-06-22T04:23:47.160Z,96328.20
2018-06-22T04:26:24.216Z,96327.59
2018-06-22T04:28:59.245Z,96324.30
2018-06-22T04:31:34.573Z,96324.32
2018-06-22T04:37:05.764Z,96320.64
2018-06-22T04:39:47.738Z,96319.45
2018-06-22T04:51:44.286Z,96313.19
2018-06-22T04:54:56.530Z,96311.73
2018-06-22T05:07:43.053Z,96317.88
2018-06-22T05:29:48.384Z,96306.73
2018-06-22T06:11:35.450Z,96315.38
2018-06-22T06:14:04.646Z,96313.94
2018-06-22T06:16:33.795Z,96318.94
2018-06-22T06:19:02.853Z,96330.58
2018-06-22T06:21:31.884Z,96325.45
2018-06-22T06:24:00.936Z,96319.41
2018-06-22T06:26:30.753Z,96311.78
2018-06-22T06:29:15.851Z,96312.68
2018-06-22T06:31:45.170Z,96314.72
2018-06-22T06:34:15.051Z,96313.73
2018-06-22T06:36:44.573Z,96318.13
2018-06-22T06:39:14.744Z,96323.47
2018-06-22T06:41:44.199Z,96321.31
2018-06-22T06:44:13.292Z,96323.39
2018-06-22T06:46:42.451Z,96322.28
2018-06-22T06:49:14.117Z,96315.19
2018-06-22T06:51:43.561Z,96323.30
2018-06-22T06:54:14.186Z,96330.98
2018-06-22T06:56:43.098Z,96330.70
2018-06-22T06:59:12.299Z,96320.08
2018-06-22T07:01:42.974Z,96328.72
2018-06-22T07:04:11.990Z,96318.48
2018-06-22T07:06:46.123Z,96312.13
2018-06-22T07:09:15.467Z,96330.52
2018-06-22T07:11:51.121Z,96336.17
2018-06-22T07:14:21.129Z,96322.52
2018-06-22T07:16:50.017Z,96322.38
2018-06-22T07:19:19.175Z,96336.10
2018-06-22T07:21:51.908Z,96324.60
2018-06-22T07:24:20.997Z,96329.19
2018-06-22T07:26:50.369Z,96330.29
2018-06-22T07:29:32.919Z,96327.63
2018-06-22T07:32:07.050Z,96336.45
2018-06-22T07:34:39.049Z,96336.88
2018-06-22T07:37:11.198Z,96319.50
2018-06-22T07:39:40.994Z,96308.64
2018-06-22T07:42:09.961Z,96299.62
2018-06-22T07:44:59.755Z,96304.09
2018-06-22T07:47:30.604Z,96308.41
2018-06-22T07:50:00.012Z,96297.70
2018-06-22T07:52:31.059Z,96297.19
2018-06-22T07:55:03.667Z,96304.86
2018-06-22T07:57:34.428Z,96309.85
2018-06-22T08:00:10.299Z,96314.45
2018-06-22T08:02:43.195Z,96312.85
2018-06-22T08:05:29.003Z,96312.99
2018-06-22T08:07:58.418Z,96310.83
2018-06-22T08:10:30.749Z,96305.44
2018-06-22T08:12:59.945Z,96296.76
2018-06-22T08:15:54.350Z,96296.93
2018-06-22T08:18:36.320Z,96287.68
2018-06-22T08:21:05.844Z,96292.09
2018-06-22T08:23:56.370Z,96282.66
2018-06-22T08:26:31.203Z,96284.24
2018-06-22T08:29:51.477Z,96281.81
2018-06-22T08:32:25.384Z,96303.49
2018-06-22T08:34:55.679Z,96298.83
2018-06-22T08:37:29.594Z,96291.55
2018-06-22T08:40:02.115Z,96304.18
2018-06-22T08:42:40.573Z,96310.02
2018-06-22T08:45:26.106Z,96303.63
2018-06-22T08:48:00.741Z,96309.91
2018-06-22T08:50:50.790Z,96309.19
2018-06-22T08:59:09.758Z,96316.95
2018-06-22T09:12:01.176Z,96340.38
2018-06-22T09:14:40.931Z,96342.76
2018-06-22T09:17:45.063Z,96351.11
2018-06-22T09:20:18.283Z,96345.47
2018-06-22T09:22:50.210Z,96329.89
2018-06-22T09:25:39.091Z,96333.16
2018-06-22T09:28:20.918Z,96325.45
2018-06-22T09:30:52.127Z,96329.38
2018-06-22T09:33:33.285Z,96330.93
2018-06-22T09:39:08.910Z,96323.78
2018-06-22T09:44:41.130Z,96318.38
2018-06-22T09:47:31.876Z,96316.69
2018-06-22T09:50:09.813Z,96325.38
2018-06-22T09:52:40.883Z,96313.77
2018-06-22T09:55:12.321Z,96300.61
2018-06-22T09:57:56.202Z,96314.42
2018-06-22T10:00:28.778Z,96319.87
2018-06-22T10:05:56.655Z,96316.23
2018-06-22T10:08:28.082Z,96318.59
2018-06-22T10:10:58.858Z,96318.94
2018-06-22T10:13:31.642Z,96332.44
2018-06-22T10:16:00.960Z,96342.50
2018-06-22T10:18:34.854Z,96330.67
2018-06-22T10:21:22.294Z,96329.37
2018-06-22T10:24:13.951Z,96346.88
2018-06-22T11:11:08.696Z,96333.55
2018-06-22T11:13:44.463Z,96337.94
2018-06-22T11:16:22.521Z,96346.45
2018-06-22T11:18:56.110Z,96339.69
2018-06-22T11:21:47.473Z,96329.33
2018-06-22T11:30:23.244Z,96341.47
2018-06-22T11:32:55.688Z,96351.15
2018-06-22T11:35:28.854Z,96350.67
2018-06-22T11:37:58.237Z,96338.80
2018-06-22T11:40:30.665Z,96345.95
2018-06-22T11:43:01.548Z,96341.73
2018-06-22T11:48:24.712Z,96340.48
2018-06-22T11:50:53.435Z,96337.41
2018-06-22T11:53:23.793Z,96357.20
2018-06-22T11:55:54.159Z,96353.48
2018-06-22T11:58:31.134Z,96354.60
2018-06-22T12:01:00.206Z,96352.98
2018-06-22T12:03:29.825Z,96351.04
2018-06-22T12:05:59.189Z,96356.38
2018-06-22T12:08:29.223Z,96343.84
2018-06-22T12:10:58.804Z,96350.98
2018-06-22T12:13:45.188Z,96354.05
2018-06-22T12:16:17.670Z,96356.72
2018-06-22T12:18:54.217Z,96358.64
2018-06-22T12:21:39.832Z,96354.11
2018-06-22T12:24:09.736Z,96361.66
2018-06-22T12:26:59.405Z,96353.13
2018-06-22T12:29:28.650Z,96346.48
2018-06-22T12:32:02.590Z,96351.20
2018-06-22T12:34:31.879Z,96357.02
2018-06-22T12:37:01.690Z,96354.70
2018-06-22T12:39:31.190Z,96351.56
2018-06-22T12:42:10.535Z,96352.52
2018-06-22T12:44:41.366Z,96355.66
2018-06-22T12:47:19.655Z,96357.92
2018-06-22T12:49:56.954Z,96344.30
2018-06-22T12:52:26.014Z,96353.54
2018-06-22T12:54:55.139Z,96354.44
2018-06-22T12:57:26.206Z,96355.88
2018-06-22T12:59:56.639Z,96366.52
2018-06-22T13:02:33.725Z,96360.33
2018-06-22T13:05:05.435Z,96349.63
2018-06-22T13:07:35.633Z,96355.81
2018-06-22T13:10:04.869Z,96356.61
2018-06-22T13:12:35.331Z,96356.20
2018-06-22T13:15:04.925Z,96354.24
2018-06-22T13:17:46.823Z,96370.98
2018-06-22T13:20:17.817Z,96361.18
2018-06-22T13:22:52.968Z,96350.02
2018-06-22T13:25:24.136Z,96357.95
2018-06-22T13:27:53.306Z,96347.85
2018-06-22T13:30:22.439Z,96346.23
2018-06-22T13:32:51.575Z,96353.83
2018-06-22T13:35:21.565Z,96346.56
2018-06-22T13:37:51.767Z,96345.67
2018-06-22T13:40:23.733Z,96341.94
2018-06-22T13:42:55.701Z,96356.06
2018-06-22T13:45:43.142Z,96354.78
2018-06-22T13:48:14.307Z,96340.48
2018-06-22T13:51:03.262Z,96341.08
2018-06-22T13:53:34.279Z,96350.22
2018-06-22T13:56:05.700Z,96340.50
2018-06-22T14:01:16.002Z,96351.52
2018-06-22T14:03:58.446Z,96348.77
2018-06-22T14:06:33.754Z,96343.89
2018-06-22T14:09:04.490Z,96355.24
2018-06-22T14:11:43.539Z,96358.44
2018-06-22T14:16:53.240Z,96365.80
2018-06-22T14:19:23.516Z,96371.91
2018-06-22T14:22:01.534Z,96369.80
2018-06-22T14:24:31.351Z,96385.59
2018-06-22T14:27:01.979Z,96409.48
2018-06-22T14:29:33.393Z,96413.61
2018-06-22T14:32:02.867Z,96410.16
2018-06-22T14:34:32.450Z,96414.70
2018-06-22T14:37:02.756Z,96415.05
2018-06-22T14:39:34.506Z,96414.51
2018-06-22T14:42:13.293Z,96419.60
2018-06-22T14:44:43.336Z,96420.42
2018-06-22T14:47:20.244Z,96420.70
2018-06-22T14:49:50.429Z,96418.00
2018-06-22T14:52:20.873Z,96424.89
2018-06-22T14:54:55.203Z,96431.16
2018-06-22T14:57:29.332Z,96436.19
2018-06-22T15:00:04.150Z,96441.23
2018-06-22T15:02:38.331Z,96437.02
2018-06-22T15:05:14.787Z,96433.14
2018-06-22T15:07:48.860Z,96442.48
2018-06-22T15:10:18.058Z,96442.23
2018-06-22T15:12:48.182Z,96435.83
2018-06-22T15:15:23.802Z,96441.47
2018-06-22T15:17:54.356Z,96427.12
2018-06-22T15:20:24.559Z,96431.36
2018-06-22T15:22:53.598Z,96423.30
2018-06-22T15:25:23.404Z,96419.70
2018-06-22T15:27:54.806Z,96413.58
2018-06-22T15:30:24.080Z,96407.23
2018-06-22T15:32:53.178Z,96408.72
2018-06-22T15:37:34.596Z,96412.95
2018-06-22T15:40:15.980Z,96406.59
2018-06-22T15:42:50.075Z,96392.77
2018-06-22T15:45:24.160Z,96398.61
2018-06-22T15:48:02.097Z,96404.19
2018-06-22T15:50:36.221Z,96402.80
2018-06-22T15:53:10.605Z,96414.22
2018-06-22T15:55:45.019Z,96412.94
2018-06-22T15:58:15.365Z,96421.01
2018-06-22T16:00:44.437Z,96408.19
2018-06-22T16:03:18.763Z,96411.87
2018-06-22T16:05:47.921Z,96410.39
2018-06-22T16:08:21.244Z,96411.05
2018-06-22T16:10:52.289Z,96411.18
2018-06-22T16:13:23.555Z,96398.78
2018-06-22T16:15:58.446Z,96405.99
2018-06-22T16:18:35.107Z,96408.02
2018-06-22T16:21:10.310Z,96402.36
2018-06-22T16:23:44.318Z,96405.10
2018-06-22T16:26:18.404Z,96405.13
2018-06-22T16:28:48.174Z,96406.55
2018-06-22T16:31:17.332Z,96408.31
2018-06-22T16:33:56.240Z,96416.52
2018-06-22T16:36:26.348Z,96413.88
2018-06-22T16:38:57.747Z,96422.17
2018-06-22T16:41:26.858Z,96416.06
2018-06-22T16:43:56.729Z,96433.57
2018-06-22T16:46:27.231Z,96431.80
2018-06-22T16:48:59.251Z,96440.78
2018-06-22T16:51:30.830Z,96446.11
2018-06-22T16:54:01.398Z,96441.48
2018-06-22T16:56:30.301Z,96450.07
2018-06-22T16:59:04.273Z,96457.14
2018-06-22T17:01:39.576Z,96458.06
2018-06-22T17:04:15.649Z,96457.92
2018-06-22T17:06:50.892Z,96455.63
2018-06-22T17:09:25.431Z,96453.66
2018-06-22T17:12:05.871Z,96461.02
2018-06-22T17:14:40.043Z,96452.44
2018-06-22T17:17:15.664Z,96457.80
2018-06-22T17:19:46.453Z,96459.86
2018-06-22T17:22:15.289Z,96479.52
2018-06-22T17:24:50.906Z,96473.06
2018-06-22T17:27:29.605Z,96470.72
2018-06-22T17:30:01.489Z,96482.30
2018-06-22T17:32:32.112Z,96489.38
2018-06-22T17:35:05.299Z,96481.27
2018-06-22T17:37:41.395Z,96490.24
2018-06-22T17:40:31.485Z,96492.19
2018-06-22T17:45:49.980Z,96493.29
2018-06-22T17:48:23.448Z,96498.45
2018-06-22T17:50:56.720Z,96502.97
2018-06-22T17:53:33.014Z,96504.95
2018-06-22T17:56:27.205Z,96493.26
2018-06-22T17:59:03.295Z,96502.05
2018-06-22T18:01:37.801Z,96507.20
2018-06-22T18:04:17.098Z,96494.87
2018-06-22T20:07:00.588Z,96623.89
